TimeCST,TemperatureF,Dew PointF,Humidity,Sea Level PressureIn,VisibilityMPH,Wind Direction,Wind SpeedMPH,Gust SpeedMPH,PrecipitationIn,Events,Conditions,WindDirDegrees,DateUTC
12:53 AM,43.0,24.1,47,29.81,10.0,South,6.9,-,N/A,,Clear,190,2012-12-06 06:53:00
1:53 AM,41.0,24.1,51,29.81,10.0,WSW,5.8,-,N/A,,Clear,250,2012-12-06 07:53:00
2:53 AM,39.0,24.1,55,29.82,10.0,West,3.5,-,N/A,,Clear,260,2012-12-06 08:53:00
3:53 AM,34.0,23.0,64,29.84,10.0,West,5.8,-,N/A,,Clear,280,2012-12-06 09:53:00
4:53 AM,36.0,25.0,64,29.85,10.0,WSW,3.5,-,N/A,,Clear,250,2012-12-06 10:53:00
5:53 AM,45.0,30.0,56,29.86,10.0,NNW,13.8,-,N/A,,Partly Cloudy,340,2012-12-06 11:53:00
6:53 AM,48.9,32.0,52,29.88,10.0,NNE,26.5,33.4,N/A,,Clear,20,2012-12-06 12:53:00
7:53 AM,46.9,26.1,44,29.92,10.0,NNE,23.0,35.7,N/A,,Clear,20,2012-12-06 13:53:00
8:53 AM,46.0,21.0,37,29.98,10.0,NNE,20.7,29.9,N/A,,Clear,30,2012-12-06 14:53:00
9:53 AM,46.0,21.0,37,30.01,10.0,NNE,16.1,21.9,N/A,,Clear,20,2012-12-06 15:53:00
10:53 AM,46.9,17.1,30,30.03,10.0,NNE,13.8,-,N/A,,Partly Cloudy,20,2012-12-06 16:53:00
11:53 AM,46.0,14.0,28,30.03,10.0,North,18.4,-,N/A,,Partly Cloudy,10,2012-12-06 17:53:00
12:53 PM,46.9,14.0,27,30.01,10.0,North,17.3,-,N/A,,Clear,360,2012-12-06 18:53:00
1:53 PM,48.0,12.0,24,30.00,10.0,North,15.0,-,N/A,,Clear,10,2012-12-06 19:53:00
2:53 PM,48.0,16.0,28,30.00,10.0,North,16.1,-,N/A,,Clear,10,2012-12-06 20:53:00
3:53 PM,46.9,16.0,29,30.00,10.0,NNE,16.1,-,N/A,,Clear,20,2012-12-06 21:53:00
4:53 PM,45.0,16.0,31,30.01,10.0,NNE,8.1,-,N/A,,Clear,20,2012-12-06 22:53:00
5:53 PM,37.9,15.1,39,30.01,10.0,NNE,4.6,-,N/A,,Clear,30,2012-12-06 23:53:00
6:53 PM,32.0,15.1,50,30.02,10.0,NNE,6.9,-,N/A,,Partly Cloudy,20,2012-12-07 00:53:00
7:53 PM,32.0,16.0,52,30.03,10.0,North,4.6,-,N/A,,Partly Cloudy,10,2012-12-07 01:53:00
8:53 PM,28.9,16.0,58,30.04,10.0,North,4.6,-,N/A,,Clear,10,2012-12-07 02:53:00
9:53 PM,28.0,17.1,63,30.05,10.0,North,3.5,-,N/A,,Clear,350,2012-12-07 03:53:00
10:53 PM,28.9,17.1,61,30.06,10.0,Calm,Calm,-,N/A,,Clear,0,2012-12-07 04:53:00
11:53 PM,19.9,12.0,71,30.06,10.0,SSW,4.6,-,N/A,,Mostly Cloudy,210,2012-12-07 05:53:00